createdAt,value
2018-11-22T05:58:26.035Z,14.00
2018-11-22T05:59:26.011Z,35.40
2018-11-22T06:00:26.001Z,31.10
2018-11-22T06:01:25.987Z,36.80
2018-11-22T06:02:25.994Z,35.30
2018-11-22T06:03:25.967Z,33.80
2018-11-22T06:04:25.958Z,37.30
2018-11-22T06:05:25.961Z,34.50
2018-11-22T06:06:25.934Z,37.50
2018-11-22T06:07:25.948Z,35.10
2018-11-22T06:08:25.916Z,35.00
2018-11-22T06:09:25.904Z,35.10
2018-11-22T06:10:25.891Z,33.00
2018-11-22T06:11:25.889Z,36.00
2018-11-22T06:12:25.886Z,34.10
2018-11-22T06:13:25.903Z,36.30
2018-11-22T06:14:25.852Z,37.00
2018-11-22T06:15:25.839Z,34.50
2018-11-22T06:16:25.832Z,36.00
2018-11-22T06:17:25.830Z,33.30
2018-11-22T06:18:25.806Z,36.60
2018-11-22T06:19:25.797Z,37.90
2018-11-22T06:20:25.792Z,35.40
2018-11-22T06:21:25.775Z,33.50
2018-11-22T06:22:25.780Z,37.10
2018-11-22T06:23:25.753Z,38.60
2018-11-22T06:24:25.743Z,37.60
2018-11-22T06:25:25.742Z,38.00
2018-11-22T06:26:25.722Z,36.50
2018-11-22T06:27:25.738Z,36.00
2018-11-22T06:28:25.702Z,39.00
2018-11-22T06:29:25.691Z,39.50
2018-11-22T06:30:25.693Z,63.70
2018-11-22T06:31:25.678Z,80.80
2018-11-22T06:32:25.664Z,72.50
2018-11-22T06:33:25.665Z,48.90
2018-11-22T06:34:25.648Z,35.30
2018-11-22T06:35:25.630Z,35.60
2018-11-22T06:36:25.619Z,35.60
2018-11-22T06:37:25.606Z,33.80
2018-11-22T06:38:25.620Z,34.90
2018-11-22T06:39:25.585Z,38.50
2018-11-22T06:40:25.577Z,35.00
2018-11-22T06:41:25.569Z,35.40
2018-11-22T06:42:25.553Z,35.50
2018-11-22T06:43:25.559Z,56.00
2018-11-22T06:44:25.545Z,95.60
2018-11-22T06:45:25.523Z,63.60
2018-11-22T06:46:25.511Z,40.80
2018-11-22T06:47:25.506Z,36.40
2018-11-22T06:48:25.514Z,35.90
2018-11-22T06:49:25.483Z,36.60
2018-11-22T06:50:25.477Z,32.10
2018-11-22T06:51:25.459Z,37.40
2018-11-22T06:52:25.457Z,35.60
2018-11-22T06:53:25.453Z,34.40
2018-11-22T06:54:25.426Z,32.50
2018-11-22T06:55:25.425Z,35.50
2018-11-22T06:56:25.419Z,34.50
2018-11-22T06:57:25.394Z,32.50
2018-11-22T06:58:32.513Z,34.60
2018-11-22T06:59:25.374Z,38.00
2018-11-22T07:00:25.363Z,36.50
2018-11-22T07:01:25.351Z,37.90
2018-11-22T07:02:25.346Z,38.50
2018-11-22T07:03:25.332Z,35.80
2018-11-22T07:04:25.323Z,33.00
2018-11-22T07:05:25.326Z,36.30
2018-11-22T07:06:25.316Z,38.00
2018-11-22T07:07:25.290Z,34.60
2018-11-22T07:08:25.290Z,35.80
2018-11-22T07:09:25.283Z,35.30
2018-11-22T07:10:25.269Z,40.90
2018-11-22T07:11:25.253Z,34.40
2018-11-22T07:12:25.238Z,35.20
2018-11-22T07:13:25.228Z,35.90
2018-11-22T07:14:25.235Z,34.50
2018-11-22T07:15:25.205Z,36.20
2018-11-22T07:16:25.202Z,33.90
2018-11-22T07:17:25.187Z,35.10
2018-11-22T07:18:25.175Z,33.90
2018-11-22T07:19:25.194Z,33.20
2018-11-22T07:20:25.154Z,36.50
2018-11-22T07:21:25.140Z,33.60
2018-11-22T07:22:25.131Z,34.20
2018-11-22T07:23:25.134Z,36.70
2018-11-22T07:24:25.167Z,36.00
2018-11-22T07:25:25.099Z,36.60
2018-11-22T07:26:25.090Z,35.70
2018-11-22T07:27:25.076Z,33.70
2018-11-22T07:28:25.067Z,36.70
2018-11-22T07:29:25.084Z,35.30
2018-11-22T07:30:25.049Z,35.20
2018-11-22T07:31:25.037Z,33.20
2018-11-22T07:32:25.027Z,32.30
2018-11-22T07:33:25.020Z,34.40
2018-11-22T07:34:25.026Z,35.80
2018-11-22T07:35:24.997Z,33.40
2018-11-22T07:36:24.991Z,35.50
2018-11-22T07:37:24.975Z,37.30
2018-11-22T07:38:24.961Z,34.00
2018-11-22T07:39:24.969Z,37.80
2018-11-22T07:40:24.939Z,35.20
2018-11-22T07:41:24.928Z,35.80
2018-11-22T07:42:24.924Z,36.40
2018-11-22T07:43:24.907Z,34.50
2018-11-22T07:44:24.917Z,34.70
2018-11-22T07:45:24.891Z,33.40
2018-11-22T07:46:24.876Z,35.00
2018-11-22T07:47:24.870Z,35.20
2018-11-22T07:48:24.861Z,37.20
2018-11-22T07:49:24.863Z,36.70
2018-11-22T07:50:24.834Z,36.10
2018-11-22T07:51:24.827Z,34.90
2018-11-22T07:52:24.814Z,35.30
2018-11-22T07:53:24.807Z,37.00
2018-11-22T07:54:24.810Z,33.60
2018-11-22T07:55:24.786Z,35.90
2018-11-22T07:56:24.774Z,31.40
2018-11-22T07:57:24.761Z,34.30
2018-11-22T07:58:24.750Z,32.70
2018-11-22T07:59:24.756Z,34.60
2018-11-22T08:00:24.730Z,34.80
2018-11-22T08:01:24.719Z,35.90
2018-11-22T08:02:24.720Z,36.30
2018-11-22T08:03:24.695Z,34.60
2018-11-22T08:04:24.703Z,31.90
2018-11-22T08:05:24.674Z,35.30
2018-11-22T08:06:24.665Z,33.60
2018-11-22T08:07:24.655Z,37.20
2018-11-22T08:08:24.648Z,35.40
2018-11-22T08:09:24.666Z,35.40
2018-11-22T08:10:24.622Z,33.80
2018-11-22T08:11:24.610Z,32.60
2018-11-22T08:12:25.950Z,34.60
2018-11-22T08:13:24.593Z,34.60
2018-11-22T08:14:24.594Z,36.60
2018-11-22T08:15:24.571Z,35.10
2018-11-22T08:16:24.572Z,36.20
2018-11-22T08:17:24.549Z,36.40
2018-11-22T08:18:24.539Z,34.50
2018-11-22T08:19:24.543Z,36.90
2018-11-22T08:20:24.521Z,37.40
2018-11-22T08:21:24.507Z,36.90
2018-11-22T08:22:24.510Z,33.80
2018-11-22T08:23:24.485Z,36.40
2018-11-22T08:24:24.490Z,39.50
2018-11-22T08:25:24.464Z,35.50
2018-11-22T08:26:24.456Z,33.90
2018-11-22T08:27:24.446Z,37.80
2018-11-22T08:28:24.451Z,32.50
2018-11-22T08:29:24.438Z,38.60
2018-11-22T08:30:24.410Z,36.40
2018-11-22T08:31:24.401Z,39.40
2018-11-22T08:32:24.393Z,38.90
2018-11-22T08:33:24.389Z,39.40
2018-11-22T08:34:24.386Z,37.70
2018-11-22T08:35:24.361Z,39.60
2018-11-22T08:36:24.351Z,35.80
2018-11-22T08:37:24.335Z,39.00
2018-11-22T08:38:24.327Z,36.50
2018-11-22T08:39:24.331Z,35.60
2018-11-22T08:40:24.325Z,37.90
2018-11-22T08:41:24.295Z,38.00
2018-11-22T08:42:24.285Z,36.70
2018-11-22T08:43:24.273Z,34.90
2018-11-22T08:44:24.284Z,34.20
2018-11-22T08:45:24.254Z,35.60
2018-11-22T08:46:24.250Z,37.30
2018-11-22T08:47:24.239Z,36.00
2018-11-22T08:48:24.221Z,36.90
2018-11-22T08:49:24.228Z,38.40
2018-11-22T08:50:24.207Z,37.90
2018-11-22T08:51:24.194Z,37.30
2018-11-22T08:52:24.200Z,39.10
2018-11-22T08:53:24.172Z,38.40
2018-11-22T08:54:24.182Z,39.10
2018-11-22T08:55:24.154Z,35.80
2018-11-22T08:56:24.138Z,37.50
2018-11-22T08:57:24.132Z,38.30
2018-11-22T08:58:24.128Z,36.90
2018-11-22T08:59:24.149Z,35.80
2018-11-22T09:00:24.093Z,33.10
2018-11-22T09:01:24.084Z,36.80
2018-11-22T09:02:24.074Z,36.30
2018-11-22T09:03:24.082Z,36.90
2018-11-22T09:04:24.056Z,37.80
2018-11-22T09:05:24.062Z,35.90
2018-11-22T09:06:24.032Z,36.60
2018-11-22T09:07:24.021Z,34.60
2018-11-22T09:08:24.017Z,36.30
2018-11-22T09:09:24.004Z,37.30
2018-11-22T09:10:24.011Z,36.00
2018-11-22T09:11:23.985Z,38.60
2018-11-22T09:12:23.969Z,34.50
2018-11-22T09:13:23.963Z,36.10
2018-11-22T09:14:23.959Z,34.70
2018-11-22T09:15:23.955Z,36.20
2018-11-22T09:16:23.977Z,33.90
2018-11-22T09:17:23.917Z,33.00
2018-11-22T09:18:23.908Z,35.90
2018-11-22T09:19:23.896Z,31.00
2018-11-22T09:20:23.906Z,32.60
2018-11-22T09:21:23.877Z,33.00
2018-11-22T09:22:23.877Z,33.50
2018-11-22T09:23:23.855Z,32.50
2018-11-22T09:24:24.316Z,34.90
2018-11-22T09:25:23.849Z,35.80
2018-11-22T09:26:23.834Z,34.20
2018-11-22T09:27:23.821Z,33.10
2018-11-22T09:28:23.805Z,31.20
2018-11-22T09:29:23.793Z,33.10
2018-11-22T09:30:23.824Z,31.40
2018-11-22T09:31:23.772Z,32.00
2018-11-22T09:32:23.761Z,32.90
2018-11-22T09:33:23.767Z,30.40
2018-11-22T09:34:23.737Z,33.10
2018-11-22T09:35:23.844Z,32.00
2018-11-22T09:36:23.720Z,30.50
2018-11-22T09:37:23.707Z,32.80
2018-11-22T09:38:23.696Z,32.50
2018-11-22T09:39:23.697Z,32.40
2018-11-22T09:40:23.693Z,33.90
2018-11-22T09:41:23.665Z,31.30
2018-11-22T09:42:23.702Z,35.50
2018-11-22T09:43:23.645Z,29.70
2018-11-22T09:44:23.635Z,33.20
2018-11-22T09:45:23.646Z,34.00
2018-11-22T09:46:23.616Z,29.90
2018-11-22T09:47:23.613Z,31.80
2018-11-22T09:48:23.602Z,33.10
2018-11-22T09:49:23.584Z,32.30
2018-11-22T09:50:23.590Z,30.70
2018-11-22T09:51:23.564Z,32.60
2018-11-22T09:52:23.561Z,30.90
2018-11-22T09:53:23.550Z,31.70
2018-11-22T09:54:23.535Z,32.00
2018-11-22T09:55:23.542Z,31.70
2018-11-22T09:56:23.515Z,31.70
2018-11-22T09:57:23.503Z,30.80
2018-11-22T09:58:23.494Z,31.20
2018-11-22T09:59:23.495Z,32.30
2018-11-22T10:00:23.488Z,29.10
2018-11-22T10:01:23.460Z,32.50
2018-11-22T10:02:23.448Z,29.30
2018-11-22T10:03:23.438Z,31.90
2018-11-22T10:04:23.428Z,30.10
2018-11-22T10:05:23.638Z,30.30
2018-11-22T10:06:23.408Z,30.90
2018-11-22T10:07:23.404Z,30.10
2018-11-22T10:08:23.412Z,30.40
2018-11-22T10:09:23.454Z,33.80
2018-11-22T10:10:23.380Z,31.00
2018-11-22T10:11:23.359Z,30.20
2018-11-22T10:12:23.364Z,34.60
2018-11-22T10:13:23.338Z,29.20
2018-11-22T10:14:23.323Z,30.90
2018-11-22T10:15:23.350Z,34.10
2018-11-22T10:16:23.309Z,28.10
2018-11-22T10:17:23.293Z,32.30
2018-11-22T10:18:23.301Z,29.50
2018-11-22T10:19:23.276Z,30.20
2018-11-22T10:20:23.279Z,28.80
2018-11-22T10:21:23.251Z,31.90
2018-11-22T10:22:23.272Z,28.70
2018-11-22T10:23:23.240Z,30.60
2018-11-22T10:24:23.261Z,32.40
2018-11-22T10:25:23.228Z,31.60
2018-11-22T10:26:23.200Z,33.00
2018-11-22T10:27:23.193Z,32.80
2018-11-22T10:28:23.180Z,29.80
2018-11-22T10:29:23.198Z,32.00
2018-11-22T10:30:23.247Z,33.80
2018-11-22T10:31:23.160Z,29.80
2018-11-22T10:32:23.136Z,29.70
2018-11-22T10:33:23.139Z,29.60
2018-11-22T10:34:23.122Z,32.80
2018-11-22T10:35:23.212Z,29.50
2018-11-22T10:36:23.100Z,30.00
2018-11-22T10:37:23.085Z,27.70
2018-11-22T10:38:23.098Z,28.50
2018-11-22T10:39:23.068Z,31.90
2018-11-22T10:40:23.075Z,29.70
2018-11-22T10:41:23.046Z,28.80
2018-11-22T10:42:23.086Z,29.60
2018-11-22T10:43:23.023Z,28.50
2018-11-22T10:44:23.014Z,25.20
2018-11-22T10:45:23.019Z,27.60
2018-11-22T10:46:23.013Z,27.90
2018-11-22T10:47:22.984Z,29.90
2018-11-22T10:48:22.984Z,27.50
2018-11-22T10:49:22.964Z,30.20
2018-11-22T10:50:22.964Z,27.50
2018-11-22T10:51:22.958Z,24.20
2018-11-22T10:52:22.938Z,26.90
2018-11-22T10:53:22.933Z,26.80
2018-11-22T10:54:22.910Z,24.60
2018-11-22T10:55:22.897Z,28.20
2018-11-22T10:56:22.920Z,26.50
2018-11-22T10:57:22.880Z,27.30
2018-11-22T10:58:22.872Z,26.10
2018-11-22T10:59:22.867Z,23.80
2018-11-22T11:00:22.846Z,23.90
2018-11-22T11:01:22.858Z,23.40
2018-11-22T11:02:22.831Z,21.10
2018-11-22T11:03:22.821Z,23.30
2018-11-22T11:04:22.845Z,21.20
2018-11-22T11:05:22.800Z,21.10
2018-11-22T11:06:22.810Z,20.90
2018-11-22T11:07:22.792Z,21.80
2018-11-22T11:08:22.769Z,21.50
2018-11-22T11:09:22.755Z,20.30
2018-11-22T11:10:22.760Z,19.70
2018-11-22T11:11:22.761Z,21.60
2018-11-22T11:12:25.544Z,20.70
2018-11-22T11:13:22.728Z,21.70
2018-11-22T11:14:22.706Z,23.50
2018-11-22T11:15:22.695Z,22.00
2018-11-22T11:16:22.699Z,24.20
2018-11-22T11:17:22.681Z,22.20
2018-11-22T11:18:22.667Z,21.90
2018-11-22T11:19:22.668Z,20.90
2018-11-22T11:20:22.646Z,23.20
2018-11-22T11:21:22.650Z,22.70
2018-11-22T11:22:22.624Z,23.20
2018-11-22T11:23:22.613Z,20.60
2018-11-22T11:24:22.625Z,20.90
2018-11-22T11:25:22.613Z,23.10
2018-11-22T11:26:22.643Z,22.30
2018-11-22T11:27:22.573Z,21.80
2018-11-22T11:28:22.561Z,21.10
2018-11-22T11:29:22.556Z,19.70
2018-11-22T11:30:22.551Z,21.80
2018-11-22T11:31:22.562Z,19.80
2018-11-22T11:32:22.524Z,22.20
2018-11-22T11:33:22.514Z,20.90
2018-11-22T11:34:22.503Z,19.40
2018-11-22T11:35:22.491Z,22.00
2018-11-22T11:36:22.498Z,20.50
2018-11-22T11:37:22.478Z,19.90
2018-11-22T11:38:22.461Z,22.90
2018-11-22T11:39:22.451Z,22.20
2018-11-22T11:40:22.441Z,21.90
2018-11-22T11:41:22.447Z,20.70
2018-11-22T11:42:22.435Z,21.10
2018-11-22T11:43:22.425Z,21.10
2018-11-22T11:44:22.408Z,20.40
2018-11-22T11:45:22.390Z,20.20
2018-11-22T11:46:22.394Z,22.20
2018-11-22T11:47:22.370Z,19.90
2018-11-22T11:48:22.368Z,21.60
2018-11-22T11:49:22.361Z,22.70
2018-11-22T11:50:22.350Z,20.70
2018-11-22T11:51:22.428Z,22.20
2018-11-22T11:52:22.315Z,20.00
2018-11-22T11:53:27.125Z,20.00
2018-11-22T11:54:23.312Z,22.60
2018-11-22T11:55:22.295Z,21.70
2018-11-22T11:56:22.293Z,21.00
2018-11-22T11:57:22.289Z,24.20
2018-11-22T11:58:22.262Z,24.30
2018-11-22T11:59:22.255Z,21.10
2018-11-22T12:00:22.240Z,22.40
2018-11-22T12:01:22.248Z,23.40
2018-11-22T12:02:22.234Z,20.80
2018-11-22T12:03:22.207Z,23.10
2018-11-22T12:04:22.196Z,21.20
2018-11-22T12:05:22.186Z,19.20
2018-11-22T12:06:22.206Z,23.30
2018-11-22T12:07:22.179Z,21.70
2018-11-22T12:08:22.170Z,20.80
2018-11-22T12:09:22.146Z,20.50
2018-11-22T12:10:22.149Z,20.20
2018-11-22T12:11:22.129Z,20.80
2018-11-22T12:12:22.130Z,20.40
2018-11-22T12:13:22.110Z,21.40
2018-11-22T12:14:22.099Z,21.70
2018-11-22T12:15:22.086Z,19.80
2018-11-22T12:16:22.075Z,20.40
2018-11-22T12:17:22.079Z,19.50
2018-11-22T12:18:22.054Z,21.10
2018-11-22T12:19:22.049Z,20.90
2018-11-22T12:20:22.045Z,21.30
2018-11-22T12:21:22.039Z,21.40
2018-11-22T12:22:22.066Z,22.20
2018-11-22T12:23:22.000Z,19.90
2018-11-22T12:24:21.992Z,23.10
2018-11-22T12:25:21.993Z,20.40
2018-11-22T12:26:21.976Z,21.90
2018-11-22T12:27:21.979Z,20.60
2018-11-22T12:28:21.976Z,21.90
2018-11-22T12:29:21.946Z,21.50
2018-11-22T12:30:21.930Z,21.60
2018-11-22T12:31:21.923Z,20.10
2018-11-22T12:32:21.931Z,22.80
2018-11-22T12:33:21.911Z,24.70
2018-11-22T12:34:21.887Z,20.40
2018-11-22T12:35:21.880Z,21.80
2018-11-22T12:36:21.875Z,23.40
2018-11-22T12:37:21.882Z,20.10
2018-11-22T12:38:21.855Z,24.10
2018-11-22T12:39:21.857Z,22.80
2018-11-22T12:40:21.839Z,21.70
2018-11-22T12:41:21.820Z,21.80
2018-11-22T12:42:21.821Z,24.70
2018-11-22T12:43:21.799Z,20.80
2018-11-22T12:44:21.796Z,23.30
2018-11-22T12:45:21.780Z,22.20
2018-11-22T12:46:21.776Z,22.60
2018-11-22T12:47:21.783Z,24.60
2018-11-22T12:48:21.752Z,26.80
2018-11-22T12:49:21.737Z,21.30
2018-11-22T12:50:21.727Z,22.10
2018-11-22T12:51:21.723Z,20.10
2018-11-22T12:52:21.731Z,22.60
2018-11-22T12:53:21.694Z,21.50
2018-11-22T12:54:21.686Z,22.60
2018-11-22T12:55:21.679Z,23.00
2018-11-22T12:56:21.668Z,23.20
2018-11-22T12:57:21.686Z,21.90
2018-11-22T12:58:21.650Z,22.80
2018-11-22T12:59:21.642Z,21.10
2018-11-22T13:00:21.624Z,23.70
2018-11-22T13:01:21.622Z,23.40
2018-11-22T13:02:21.621Z,25.20
2018-11-22T13:03:21.598Z,21.00
2018-11-22T13:04:21.589Z,23.10
2018-11-22T13:05:21.573Z,22.70
2018-11-22T13:06:21.567Z,21.00
2018-11-22T13:07:21.568Z,23.10
2018-11-22T13:08:21.545Z,20.20
2018-11-22T13:09:21.534Z,21.50
2018-11-22T13:10:21.525Z,23.30
2018-11-22T13:11:21.531Z,25.20
2018-11-22T13:12:21.518Z,25.70
2018-11-22T13:13:21.497Z,26.70
2018-11-22T13:14:21.481Z,22.60
2018-11-22T13:15:21.469Z,23.80
2018-11-22T13:16:21.468Z,24.30
2018-11-22T13:17:21.464Z,21.40
2018-11-22T13:18:21.464Z,23.70
2018-11-22T13:19:21.438Z,21.00
2018-11-22T13:20:21.425Z,22.40
2018-11-22T13:21:21.413Z,21.50
2018-11-22T13:22:21.416Z,21.70
2018-11-22T13:23:21.405Z,21.30
2018-11-22T13:24:21.381Z,22.60
2018-11-22T13:25:21.369Z,20.80
2018-11-22T13:26:21.360Z,22.30
2018-11-22T13:27:21.364Z,23.70
2018-11-22T13:28:21.352Z,22.60
2018-11-22T13:29:21.331Z,21.40
2018-11-22T13:30:21.322Z,22.20
2018-11-22T13:31:21.313Z,20.50
2018-11-22T13:32:21.650Z,22.20
2018-11-22T13:33:21.286Z,20.70
2018-11-22T13:34:21.285Z,23.10
2018-11-22T13:35:21.281Z,22.20
2018-11-22T13:36:21.258Z,21.10
2018-11-22T13:37:21.256Z,21.30
2018-11-22T13:38:21.255Z,22.70
2018-11-22T13:39:21.225Z,21.60
2018-11-22T13:40:21.228Z,21.50
2018-11-22T13:41:21.206Z,21.80
2018-11-22T13:42:21.208Z,22.60
2018-11-22T13:43:21.206Z,22.70
2018-11-22T13:44:21.174Z,23.30
2018-11-22T13:45:21.165Z,21.40
2018-11-22T13:46:21.156Z,22.10
2018-11-22T13:47:21.147Z,22.80
2018-11-22T13:48:21.152Z,21.80
2018-11-22T13:49:21.123Z,21.30
2018-11-22T13:50:21.125Z,19.80
2018-11-22T13:51:21.100Z,20.20
2018-11-22T13:52:21.098Z,21.80
2018-11-22T13:53:21.153Z,20.90
2018-11-22T13:54:21.079Z,21.70
2018-11-22T13:55:21.061Z,21.60
2018-11-22T13:56:21.054Z,21.10
2018-11-22T13:57:21.041Z,20.80
2018-11-22T13:58:21.052Z,19.90
2018-11-22T13:59:21.033Z,22.10
2018-11-22T14:00:21.014Z,24.40
2018-11-22T14:01:20.999Z,20.40
2018-11-22T14:02:21.003Z,19.40
2018-11-22T14:03:20.997Z,21.60
2018-11-22T14:04:20.971Z,21.70
2018-11-22T14:05:20.961Z,20.30
2018-11-22T14:06:20.950Z,20.30
2018-11-22T14:07:20.943Z,20.80
2018-11-22T14:08:20.954Z,21.40
2018-11-22T14:09:20.927Z,21.60
2018-11-22T14:10:20.908Z,22.60
2018-11-22T14:11:20.912Z,21.10
2018-11-22T14:12:20.889Z,23.60
2018-11-22T14:13:20.895Z,21.80
2018-11-22T14:14:20.884Z,20.60
2018-11-22T14:15:20.858Z,19.40
2018-11-22T14:16:20.898Z,22.30
2018-11-22T14:17:20.839Z,20.20
2018-11-22T14:18:20.833Z,23.10
2018-11-22T14:19:20.832Z,23.00
2018-11-22T14:20:20.804Z,21.50
2018-11-22T14:21:20.812Z,21.40
2018-11-22T14:22:20.789Z,21.50
2018-11-22T14:23:20.785Z,22.40
2018-11-22T14:24:20.781Z,21.40
2018-11-22T14:25:20.774Z,18.20
2018-11-22T14:26:20.751Z,18.90
2018-11-22T14:27:20.734Z,21.20
2018-11-22T14:28:20.729Z,21.40
2018-11-22T14:29:20.761Z,20.30
2018-11-22T14:30:20.704Z,18.70
2018-11-22T14:31:20.707Z,22.20
2018-11-22T14:32:20.682Z,18.90
2018-11-22T14:33:20.671Z,19.90
2018-11-22T14:34:20.689Z,20.60
2018-11-22T14:35:21.006Z,21.10
2018-11-22T14:36:20.643Z,23.60
2018-11-22T14:37:20.633Z,20.90
2018-11-22T14:38:20.623Z,21.10
2018-11-22T14:39:20.637Z,21.30
2018-11-22T14:40:20.609Z,20.90
2018-11-22T14:41:20.594Z,19.80
2018-11-22T14:42:20.585Z,22.10
2018-11-22T14:43:20.573Z,20.70
2018-11-22T14:44:20.562Z,20.80
2018-11-22T14:45:20.583Z,20.50
2018-11-22T14:46:20.555Z,22.60
2018-11-22T14:47:20.566Z,20.30
2018-11-22T14:48:20.523Z,19.70
2018-11-22T14:49:20.510Z,20.20
2018-11-22T14:50:20.516Z,20.50
2018-11-22T14:51:20.486Z,20.80
2018-11-22T14:52:20.480Z,20.10
2018-11-22T14:53:20.467Z,20.40
2018-11-22T14:54:20.458Z,20.20
2018-11-22T14:55:20.472Z,21.20
2018-11-22T14:56:20.442Z,19.60
2018-11-22T14:57:20.425Z,23.30
2018-11-22T14:58:20.425Z,18.60
2018-11-22T14:59:20.413Z,21.70
2018-11-22T15:00:20.412Z,20.30
2018-11-22T15:01:20.383Z,21.30
2018-11-22T15:02:20.387Z,20.30
2018-11-22T15:03:20.363Z,20.90
2018-11-22T15:04:20.353Z,21.10
2018-11-22T15:05:20.361Z,21.20
2018-11-22T15:06:20.345Z,22.60
2018-11-22T15:07:20.329Z,20.80
2018-11-22T15:08:20.320Z,20.80
2018-11-22T15:09:20.302Z,21.60
2018-11-22T15:10:20.316Z,21.70
2018-11-22T15:11:20.286Z,22.80
2018-11-22T15:12:20.276Z,18.80
2018-11-22T15:13:20.261Z,21.40
2018-11-22T15:14:20.259Z,22.90
2018-11-22T15:15:20.264Z,21.70
2018-11-22T15:16:20.231Z,20.60
2018-11-22T15:17:20.227Z,21.70
2018-11-22T15:18:20.217Z,22.90
2018-11-22T15:19:20.208Z,21.70
2018-11-22T15:20:20.725Z,23.30
2018-11-22T15:21:20.180Z,22.30
2018-11-22T15:22:20.171Z,21.50
2018-11-22T15:23:20.159Z,21.60
2018-11-22T15:24:20.151Z,20.80
2018-11-22T15:25:20.158Z,21.60
2018-11-22T15:26:20.150Z,22.40
2018-11-22T15:27:20.140Z,23.50
2018-11-22T15:28:20.106Z,21.80
2018-11-22T15:29:20.101Z,22.90
2018-11-22T15:30:20.108Z,21.70
2018-11-22T15:31:20.085Z,19.90
2018-11-22T15:32:20.068Z,20.20
2018-11-22T15:33:20.054Z,24.80
2018-11-22T15:34:20.048Z,20.80
2018-11-22T15:35:20.055Z,22.10
2018-11-22T15:36:20.037Z,19.90
2018-11-22T15:37:20.018Z,22.40
2018-11-22T15:38:20.002Z,22.80
2018-11-22T15:39:20.003Z,20.40
2018-11-22T15:40:20.007Z,21.20
2018-11-22T15:41:19.974Z,18.50
2018-11-22T15:42:19.972Z,21.80
2018-11-22T15:43:19.959Z,20.30
2018-11-22T15:44:19.945Z,21.70
2018-11-22T15:45:19.960Z,22.40
2018-11-22T15:46:19.921Z,20.80
2018-11-22T15:47:19.916Z,20.10
2018-11-22T15:48:19.908Z,20.50
2018-11-22T15:49:19.891Z,25.80
2018-11-22T15:50:19.894Z,23.00
2018-11-22T15:51:19.889Z,22.70
2018-11-22T15:52:19.860Z,21.40
2018-11-22T15:53:19.852Z,30.10
2018-11-22T15:54:19.849Z,28.40
2018-11-22T15:55:21.112Z,24.50
2018-11-22T15:56:19.838Z,23.70
2018-11-22T15:57:19.818Z,21.50
2018-11-22T15:58:19.800Z,21.10
2018-11-22T15:59:19.787Z,23.00
2018-11-22T16:00:19.779Z,22.10
2018-11-22T16:01:19.784Z,20.80
2018-11-22T16:02:19.774Z,21.20
2018-11-22T16:03:19.752Z,22.20
2018-11-22T16:04:19.736Z,21.10
2018-11-22T16:05:19.725Z,21.50
2018-11-22T16:06:19.729Z,25.00
2018-11-22T16:07:19.718Z,20.50
2018-11-22T16:08:19.701Z,23.00
2018-11-22T16:09:19.682Z,25.10
2018-11-22T16:10:22.083Z,22.20
2018-11-22T16:11:20.685Z,23.40
2018-11-22T16:12:19.663Z,23.00
2018-11-22T16:13:19.647Z,22.90
2018-11-22T16:14:19.634Z,23.20
2018-11-22T16:15:19.637Z,22.80
2018-11-22T16:16:19.631Z,22.20
2018-11-22T16:17:19.609Z,22.50
2018-11-22T16:18:19.599Z,22.50
2018-11-22T16:19:19.579Z,23.40
2018-11-22T16:20:19.567Z,81.30
2018-11-22T16:21:19.577Z,25.20
2018-11-22T16:22:19.564Z,24.10
2018-11-22T16:23:19.540Z,22.20
2018-11-22T16:24:19.544Z,21.10
2018-11-22T16:25:19.522Z,22.90
2018-11-22T16:26:19.529Z,22.50
2018-11-22T16:27:19.537Z,21.70
2018-11-22T16:28:19.527Z,20.80
2018-11-22T16:29:19.474Z,21.80
2018-11-22T16:30:19.465Z,20.70
2018-11-22T16:31:19.471Z,21.10
2018-11-22T16:32:19.448Z,22.80
2018-11-22T16:33:19.489Z,25.90
2018-11-22T16:34:19.427Z,21.90
2018-11-22T16:35:19.453Z,22.00
2018-11-22T16:36:19.417Z,23.50
2018-11-22T16:37:19.405Z,21.30
2018-11-22T16:38:19.414Z,23.50
2018-11-22T16:39:19.376Z,23.50
2018-11-22T16:40:19.361Z,24.80
2018-11-22T16:41:19.366Z,23.90
2018-11-22T16:42:19.342Z,26.30
2018-11-22T16:43:19.331Z,24.70
2018-11-22T16:44:19.326Z,26.40
2018-11-22T16:45:19.310Z,23.30
2018-11-22T16:46:19.320Z,21.70
2018-11-22T16:47:19.291Z,23.70
2018-11-22T16:48:19.275Z,23.90
2018-11-22T16:49:19.269Z,24.90
2018-11-22T16:50:19.254Z,24.20
2018-11-22T16:51:19.268Z,23.30
2018-11-22T16:52:19.253Z,24.90
2018-11-22T16:53:19.223Z,24.20
2018-11-22T16:54:19.211Z,26.00
2018-11-22T16:55:19.206Z,30.40
2018-11-22T16:56:19.209Z,24.80
2018-11-22T16:57:19.187Z,23.40
2018-11-22T16:58:19.173Z,25.00
2018-11-22T16:59:19.171Z,22.40
2018-11-22T17:00:19.157Z,24.60
2018-11-22T17:01:19.166Z,23.40
2018-11-22T17:02:19.132Z,24.60
2018-11-22T17:03:19.128Z,25.30
2018-11-22T17:04:19.108Z,22.60
2018-11-22T17:05:19.111Z,24.10
2018-11-22T17:06:19.121Z,26.50
2018-11-22T17:07:19.092Z,23.00
2018-11-22T17:08:19.065Z,24.70
2018-11-22T17:09:19.058Z,23.20
2018-11-22T17:10:19.044Z,24.10
2018-11-22T17:11:19.033Z,24.10
2018-11-22T17:12:19.043Z,106.80
2018-11-22T17:13:19.014Z,102.60
2018-11-22T17:14:19.007Z,43.70
2018-11-22T17:15:19.004Z,29.90
2018-11-22T17:16:18.979Z,28.30
2018-11-22T17:17:18.986Z,22.90
2018-11-22T17:18:18.959Z,24.00
2018-11-22T17:19:18.958Z,22.70
2018-11-22T17:20:18.942Z,26.40
2018-11-22T17:21:18.928Z,23.60
2018-11-22T17:22:18.932Z,23.60
2018-11-22T17:23:18.905Z,22.70
2018-11-22T17:24:18.901Z,25.80
2018-11-22T17:25:18.891Z,23.10
2018-11-22T17:26:18.881Z,25.60
2018-11-22T17:27:18.885Z,23.00
2018-11-22T17:28:18.866Z,24.80
2018-11-22T17:29:18.857Z,25.20
2018-11-22T17:30:18.837Z,25.10
2018-11-22T17:31:18.827Z,26.20
2018-11-22T17:32:18.835Z,26.30
2018-11-22T17:33:18.800Z,24.50
2018-11-22T17:34:18.802Z,23.50
2018-11-22T17:35:18.784Z,26.00
2018-11-22T17:36:18.768Z,24.60
2018-11-22T17:37:18.776Z,24.10
2018-11-22T17:38:18.748Z,23.60
2018-11-22T17:39:18.739Z,23.20
2018-11-22T17:40:18.729Z,24.20
2018-11-22T17:41:18.728Z,24.70
2018-11-22T17:42:18.729Z,25.60
2018-11-22T17:43:18.698Z,25.90
2018-11-22T17:44:18.686Z,21.70
2018-11-22T17:45:18.673Z,25.70
2018-11-22T17:46:18.663Z,27.50
2018-11-22T17:47:18.671Z,24.20
2018-11-22T17:48:18.643Z,25.00
2018-11-22T17:49:18.637Z,23.60
2018-11-22T17:50:18.660Z,26.50
2018-11-22T17:51:18.613Z,24.80
2018-11-22T17:52:18.622Z,25.30
2018-11-22T17:53:18.603Z,27.00
2018-11-22T17:54:18.579Z,23.90
2018-11-22T17:55:18.579Z,25.80
2018-11-22T17:56:18.563Z,26.10
2018-11-22T17:57:18.563Z,25.70
2018-11-22T17:58:18.540Z,25.60
2018-11-22T17:59:18.560Z,23.80
2018-11-22T18:00:18.516Z,25.30
2018-11-22T18:01:18.530Z,24.50
2018-11-22T18:02:18.508Z,24.20
2018-11-22T18:03:18.486Z,25.60
2018-11-22T18:04:18.498Z,24.40
2018-11-22T18:05:18.467Z,24.90
2018-11-22T18:06:18.453Z,25.30
2018-11-22T18:07:18.457Z,23.90
2018-11-22T18:08:18.430Z,24.20
2018-11-22T18:09:18.421Z,71.40
2018-11-22T18:10:18.418Z,171.40
2018-11-22T18:11:18.418Z,69.90
2018-11-22T18:12:18.410Z,45.00
2018-11-22T18:13:18.461Z,28.20
2018-11-22T18:14:18.369Z,26.70
2018-11-22T18:15:18.360Z,24.70
2018-11-22T18:16:18.409Z,25.70
2018-11-22T18:17:18.349Z,26.60
2018-11-22T18:18:18.330Z,26.40
2018-11-22T18:19:18.323Z,25.60
2018-11-22T18:20:18.303Z,27.30
2018-11-22T18:21:18.294Z,30.50
2018-11-22T18:22:18.306Z,22.70
2018-11-22T18:23:18.297Z,24.60
2018-11-22T18:24:18.262Z,24.80
2018-11-22T18:25:18.255Z,25.20
2018-11-22T18:26:18.240Z,26.70
2018-11-22T18:27:18.248Z,25.70
2018-11-22T18:28:18.226Z,24.30
2018-11-22T18:29:18.214Z,57.40
2018-11-22T18:30:18.205Z,66.10
2018-11-22T18:31:18.204Z,33.40
2018-11-22T18:32:18.207Z,24.50
2018-11-22T18:33:18.178Z,23.40
2018-11-22T18:34:18.170Z,25.60
2018-11-22T18:35:18.148Z,25.40
2018-11-22T18:36:18.151Z,25.50
2018-11-22T18:37:18.169Z,25.50
2018-11-22T18:38:18.116Z,22.90
2018-11-22T18:39:18.113Z,23.60
2018-11-22T18:40:18.111Z,24.60
2018-11-22T18:41:18.084Z,24.10
2018-11-22T18:42:18.092Z,25.80
2018-11-22T18:43:18.088Z,23.80
2018-11-22T18:44:18.094Z,26.30
2018-11-22T18:45:18.042Z,27.70
2018-11-22T18:46:18.041Z,24.50
2018-11-22T18:47:18.023Z,25.00
2018-11-22T18:48:18.026Z,23.80
2018-11-22T18:49:17.999Z,27.60
2018-11-22T18:50:18.020Z,27.60